Aérodrome :
LOGIN :

S'inscrire | Disclaimer

   EN    FR    IT 

 










Légende :    VFR   VFR Marginal   IFR   IFR Intensif   IFR Très Intensif
Visi : 
Plafond : 
>= 8 km
>= 3000ft
5 à 8 km
1000 à 3000 ft
1500m à 5 km
500 à 1000 ft
800 à 1500m
200 à 500 ft
< 800m
< 200 ft
Symboles :   Orages  Brouillard  Fortes neiges  Fortes précipitations  Vent > 20 kt
SIGMETs :   Divers  Orages  Givrage  Turbulence  Onde Orograph.  Cendres Volcan.






- Altitude de l'aérodrome : 160 ft
- Code IATA : FMO


EDDG - Münster Osnabrück Int.

DERNIER METAR :
  • 071250Z 20004KT 130V290 CAVOK 33/08 Q1020 NOSIG

METARs EXPIRÉS :
  • 071220Z VRB03KT CAVOK 34/08 Q1020 NOSIG
  • 071150Z 16006KT 080V230 CAVOK 33/08 Q1020 NOSIG
  • 071120Z VRB06KT CAVOK 32/08 Q1020 NOSIG
  • 071050Z VRB05KT CAVOK 32/08 Q1020 NOSIG

TAF TAF EDDG
Valide du 07 à 12h jusqu'au 08 à 12h UTC


071100Z 0712/0812 12005KT CAVOK
BECMG 0712/0715 05005KT
BECMG 0718/0722 VRB02KT
BECMG 0808/0811 03005KT



MET'MAP, la Météo Aéronautique d'un coup d'oeil ! - Copyright ORBIFLY Décembre 2007 - Disclaimer

ORBIFLY MET'MAP TEAM :

Programmation & Développement : Alexandra Zaïnal
Sur une idée originale de : Baudouin d'Aumeries
Assistance à la programmation : Marc-Olivier Méhu
Soutien technique & logistique : Manuel Goepfert

Contact : metmap@orbifly.com




SOURCES & CREDITS :

   NOAA